Time;durP1;ratioP1;P1;durP2;ratioP2;P2;SDS_P1;SDS_P2;PMS_P1;PMS_P2;Temp;Humidity;BMP_temperature;BMP_pressure;BME280_temperature;BME280_humidity;BME280_pressure;Samples;Min_cycle;Max_cycle;Signal;HPM_P1;HPM_P2
2021/09/06 00:00:43;;;;;;;4.70;1.70;;;;;;;8.44;79.18;99952.00;5031818;28;20049;-70
2021/09/06 00:03:09;;;;;;;2.83;1.58;;;;;;;8.47;78.91;99959.72;5032438;28;20049;-71
2021/09/06 00:05:35;;;;;;;2.30;1.58;;;;;;;8.37;79.49;99941.81;5030815;28;20506;-70
2021/09/06 00:08:00;;;;;;;3.65;1.77;;;;;;;8.49;79.58;99951.91;5031556;28;20129;-69
2021/09/06 00:10:42;;;;;;;2.67;1.35;;;;;;;8.50;78.78;99954.47;5031571;28;20517;-70
2021/09/06 00:13:12;;;;;;;3.13;1.58;;;;;;;8.45;79.02;99942.50;5032242;28;20045;-70
2021/09/06 00:15:38;;;;;;;;;;;;;;;8.52;78.76;99954.44;5032273;28;20093;-71
2021/09/06 00:18:04;;;;;;;4.47;1.30;;;;;;;8.53;78.40;99957.88;5031432;28;19931;-70
2021/09/06 00:20:31;;;;;;;5.25;1.25;;;;;;;8.50;78.46;99945.84;5031655;28;20049;-70
2021/09/06 00:22:57;;;;;;;1.85;1.33;;;;;;;8.42;78.29;99934.81;5031933;28;20148;-70
2021/09/06 00:25:23;;;;;;;2.40;1.27;;;;;;;8.47;78.28;99940.72;5030388;28;20560;-70
2021/09/06 00:27:48;;;;;;;2.75;1.50;;;;;;;8.47;78.26;99948.50;5031016;28;20037;-70
2021/09/06 00:30:14;;;;;;;3.60;1.67;;;;;;;8.46;78.53;99949.38;5031571;28;20053;-71
2021/09/06 00:32:40;;;;;;;2.63;1.70;;;;;;;8.50;78.64;99953.63;5030439;28;20075;-71
2021/09/06 00:35:07;;;;;;;2.63;1.52;;;;;;;8.50;78.17;99953.63;5029969;28;20042;-68
2021/09/06 00:37:33;;;;;;;2.13;1.45;;;;;;;8.38;77.72;99939.19;5030499;28;20568;-71
2021/09/06 00:39:59;;;;;;;7.28;1.52;;;;;;;8.48;78.13;99965.72;5031241;28;20116;-70
2021/09/06 00:42:24;;;;;;;2.97;1.48;;;;;;;8.42;77.91;99960.72;5029671;28;20140;-70
2021/09/06 00:44:50;;;;;;;2.17;1.48;;;;;;;8.39;78.27;99960.75;5029492;28;20070;-70
2021/09/06 00:47:16;;;;;;;4.75;1.50;;;;;;;8.32;78.01;99956.59;5029707;28;20060;-70
2021/09/06 00:49:42;;;;;;;3.40;1.60;;;;;;;8.21;77.92;99943.84;5030664;28;20072;-71
2021/09/06 00:52:08;;;;;;;3.65;1.63;;;;;;;8.11;78.02;99944.06;5030001;28;20168;-70
2021/09/06 00:54:33;;;;;;;3.15;1.30;;;;;;;8.12;79.18;99950.91;5030036;28;20076;-69
2021/09/06 00:57:00;;;;;;;4.13;1.83;;;;;;;8.08;79.68;99958.75;5030651;28;20037;-69
2021/09/06 00:59:28;;;;;;;2.97;1.13;;;;;;;8.05;80.15;99950.22;5030016;28;20053;-71
2021/09/06 01:01:54;;;;;;;2.50;1.35;;;;;;;8.00;80.66;99960.66;5030916;28;20133;-70
2021/09/06 01:04:21;;;;;;;3.08;1.35;;;;;;;7.99;81.11;99952.91;5030682;28;20160;-70
2021/09/06 01:07:07;;;;;;;1.92;1.40;;;;;;;7.93;81.59;99951.31;5029844;28;20092;-69
2021/09/06 01:10:13;;;;;;;3.25;1.60;;;;;;;7.93;82.10;99966.84;5027398;28;20037;-68
2021/09/06 01:12:53;;;;;;;2.92;1.67;;;;;;;7.92;82.45;99961.69;5011267;28;20064;-69
2021/09/06 01:15:20;;;;;;;2.05;1.30;;;;;;;7.91;82.71;99954.78;5028329;28;20283;-70
2021/09/06 01:17:46;;;;;;;4.30;1.50;;;;;;;7.90;83.01;99955.69;5030934;28;20505;-69
2021/09/06 01:20:13;;;;;;;2.92;2.10;;;;;;;7.89;82.85;99959.16;5029581;28;20038;-71
2021/09/06 01:22:43;;;;;;;3.00;1.25;;;;;;;7.88;82.43;99965.22;5027168;28;20048;-71
2021/09/06 01:25:18;;;;;;;5.05;1.20;;;;;;;7.87;82.17;99959.19;5028702;28;20048;-70
2021/09/06 01:27:46;;;;;;;5.90;1.65;;;;;;;7.90;82.57;99960.88;5028441;28;20428;-70
2021/09/06 01:30:15;;;;;;;2.13;1.65;;;;;;;7.90;82.12;99964.28;5013254;28;20037;-70
2021/09/06 01:32:42;;;;;;;1.70;1.20;;;;;;;7.93;82.11;99960.81;5012608;28;20144;-70
2021/09/06 01:35:08;;;;;;;4.28;1.60;;;;;;;7.92;82.14;99959.94;5025896;28;20072;-70
2021/09/06 01:37:37;;;;;;;2.40;1.38;;;;;;;7.89;82.08;99956.56;5027937;28;20037;-70
2021/09/06 01:40:04;;;;;;;3.35;1.30;;;;;;;7.85;82.00;99957.53;5028162;28;20512;-70
2021/09/06 01:42:30;;;;;;;4.35;1.33;;;;;;;7.82;81.94;99973.94;5028629;28;20501;-69
2021/09/06 01:45:02;;;;;;;2.40;1.60;;;;;;;7.78;82.06;99974.88;4996192;28;20045;-69
2021/09/06 01:47:30;;;;;;;2.55;1.33;;;;;;;7.73;82.16;99966.34;5028763;28;20073;-70
2021/09/06 01:49:57;;;;;;;2.65;1.35;;;;;;;7.70;82.47;99965.53;5030800;28;20118;-70
2021/09/06 01:52:25;;;;;;;3.20;1.38;;;;;;;7.63;81.93;99970.84;5021003;28;20099;-68
2021/09/06 01:54:55;;;;;;;2.35;1.50;;;;;;;7.65;82.22;99973.38;5028767;28;20512;-69
2021/09/06 01:57:21;;;;;;;3.50;1.30;;;;;;;7.64;82.44;99974.28;5018376;28;20056;-70
2021/09/06 01:59:49;;;;;;;2.80;1.30;;;;;;;7.62;82.10;99982.06;5028948;28;20049;-70
2021/09/06 02:02:17;;;;;;;2.40;1.50;;;;;;;7.60;81.95;99970.88;5026912;28;20040;-62
2021/09/06 02:04:43;;;;;;;2.58;1.20;;;;;;;7.58;81.88;99975.25;5027261;28;20044;-63
2021/09/06 02:07:10;;;;;;;3.17;1.40;;;;;;;7.54;81.70;99977.91;5027238;28;20103;-64
2021/09/06 02:09:36;;;;;;;2.45;1.17;;;;;;;7.50;81.79;99976.25;5028318;28;20516;-64
2021/09/06 02:12:07;;;;;;;2.28;1.30;;;;;;;7.51;82.51;99977.97;5011039;28;20425;-63
2021/09/06 02:14:37;;;;;;;2.13;1.20;;;;;;;7.50;83.29;99979.69;5060757;28;20053;-64
2021/09/06 02:17:03;;;;;;;2.58;1.40;;;;;;;7.51;83.72;99980.53;5028025;28;20063;-64
2021/09/06 02:19:33;;;;;;;2.58;1.23;;;;;;;7.49;83.92;99980.56;5029690;28;20136;-64
2021/09/06 02:21:59;;;;;;;2.90;1.20;;;;;;;7.47;84.19;99984.94;5027964;28;20123;-62
2021/09/06 02:24:26;;;;;;;3.22;1.35;;;;;;;7.44;84.64;99987.53;5012008;28;20143;-63
2021/09/06 02:26:59;;;;;;;2.65;1.45;;;;;;;7.39;84.92;99988.50;5027772;28;20075;-63
2021/09/06 02:29:27;;;;;;;1.95;1.25;;;;;;;7.31;85.17;99992.97;5027961;28;20065;-63
2021/09/06 02:32:03;;;;;;;2.65;1.40;;;;;;;7.24;85.18;99994.78;5060041;28;20095;-63
2021/09/06 02:34:48;;;;;;;4.07;1.70;;;;;;;7.14;85.42;99993.22;5026002;28;20049;-62
2021/09/06 02:37:14;;;;;;;2.20;1.52;;;;;;;7.07;85.45;99994.19;5028313;28;20041;-64
2021/09/06 02:39:44;;;;;;;3.17;1.35;;;;;;;7.03;85.32;99990.81;5012053;28;20042;-63
2021/09/06 02:42:10;;;;;;;3.25;1.65;;;;;;;7.01;85.93;99994.31;5027693;28;20045;-64
2021/09/06 02:44:36;;;;;;;3.08;1.60;;;;;;;6.97;85.95;99998.66;5027139;28;20072;-64
2021/09/06 02:47:05;;;;;;;3.00;1.90;;;;;;;6.96;86.41;99999.50;5027760;28;20064;-64
2021/09/06 02:49:31;;;;;;;2.50;1.50;;;;;;;6.92;86.40;100005.59;5029734;28;20401;-62
2021/09/06 02:51:59;;;;;;;2.60;1.40;;;;;;;6.93;86.99;100006.47;5027439;28;20033;-63
2021/09/06 02:54:28;;;;;;;2.87;1.90;;;;;;;6.91;86.99;100005.66;5028609;28;20125;-64
2021/09/06 02:56:53;;;;;;;3.40;1.58;;;;;;;6.89;87.66;100008.25;5025197;28;20088;-64
2021/09/06 02:59:19;;;;;;;3.22;1.70;;;;;;;6.80;87.33;99996.28;5011073;28;20069;-63
2021/09/06 03:01:45;;;;;;;2.83;1.50;;;;;;;6.90;88.32;100007.38;5027533;28;20123;-64
2021/09/06 03:04:11;;;;;;;3.38;1.73;;;;;;;6.89;88.11;100010.84;5027765;28;20037;-64
2021/09/06 03:06:37;;;;;;;2.78;1.50;;;;;;;6.88;88.79;100019.47;5027917;28;20075;-64
2021/09/06 03:09:05;;;;;;;2.47;1.30;;;;;;;6.80;88.94;100013.56;5027942;28;20069;-64
2021/09/06 03:11:30;;;;;;;2.08;1.50;;;;;;;6.86;88.95;100026.38;5026515;28;20509;-65
2021/09/06 03:13:58;;;;;;;3.45;1.60;;;;;;;6.85;88.93;100024.69;5027097;28;20087;-63
2021/09/06 03:16:25;;;;;;;6.25;1.60;;;;;;;6.86;88.65;100020.34;5027647;28;20045;-64
2021/09/06 03:18:53;;;;;;;;;;;;;;;6.89;89.03;100030.66;5028285;28;20049;-63
2021/09/06 03:21:35;;;;;;;3.80;2.25;;;;;;;6.89;89.25;100026.34;5028865;28;19925;-64
2021/09/06 03:24:02;;;;;;;4.90;1.52;;;;;;;6.82;89.06;100015.22;5027177;28;20053;-64
2021/09/06 03:26:29;;;;;;;2.92;1.58;;;;;;;6.94;89.29;100032.31;5011025;28;20489;-62
2021/09/06 03:28:56;;;;;;;1.90;1.30;;;;;;;6.81;89.59;100017.81;5027588;28;20041;-64
2021/09/06 03:31:23;;;;;;;4.43;1.67;;;;;;;6.99;89.32;100032.22;5027270;28;20060;-64
2021/09/06 03:33:52;;;;;;;2.28;1.40;;;;;;;6.92;89.49;100018.53;5028142;28;20524;-63
2021/09/06 03:36:20;;;;;;;3.25;1.58;;;;;;;7.03;89.77;100031.31;5031087;28;20076;-65
2021/09/06 03:38:46;;;;;;;3.47;1.50;;;;;;;6.97;89.32;100037.41;5032651;28;20421;-64
2021/09/06 03:41:12;;;;;;;2.50;1.35;;;;;;;6.99;88.89;100042.56;5032654;28;20076;-65
2021/09/06 03:43:40;;;;;;;4.50;1.50;;;;;;;7.01;88.94;100043.41;5031755;28;20140;-64
2021/09/06 03:46:06;;;;;;;3.42;1.60;;;;;;;7.00;88.34;100047.72;5029724;28;20119;-64
2021/09/06 03:48:33;;;;;;;5.05;1.60;;;;;;;6.88;88.10;100029.78;5031384;28;20041;-62
2021/09/06 03:51:04;;;;;;;3.58;1.30;;;;;;;6.98;87.07;100043.44;5029862;28;20118;-62
2021/09/06 03:53:30;;;;;;;3.83;2.13;;;;;;;7.03;87.00;100047.66;5030333;28;20524;-63
2021/09/06 03:55:56;;;;;;;3.50;1.92;;;;;;;7.10;86.76;100044.13;5031034;28;20079;-64
2021/09/06 03:58:23;;;;;;;4.35;2.15;;;;;;;7.12;86.98;100042.34;5030795;28;20071;-64
2021/09/06 04:00:48;;;;;;;3.22;1.70;;;;;;;7.14;86.56;100035.44;5030730;28;20056;-64
2021/09/06 04:03:17;;;;;;;2.33;1.70;;;;;;;7.31;86.41;100052.44;5032324;28;20041;-64
2021/09/06 04:05:43;;;;;;;6.93;1.90;;;;;;;7.37;86.56;100057.53;5030412;28;20056;-65
2021/09/06 04:08:09;;;;;;;2.65;1.70;;;;;;;7.38;86.09;100056.66;5030987;28;20416;-63
2021/09/06 04:10:35;;;;;;;5.95;1.50;;;;;;;7.30;85.88;100041.25;5029050;28;20048;-63
2021/09/06 04:13:01;;;;;;;4.07;1.70;;;;;;;7.39;85.55;100056.63;5030298;28;20042;-64
2021/09/06 04:15:28;;;;;;;2.85;1.45;;;;;;;7.42;85.65;100053.13;5054429;28;20104;-64
2021/09/06 04:17:54;;;;;;;2.42;1.40;;;;;;;7.39;84.76;100048.84;5023124;28;20045;-63
2021/09/06 04:20:20;;;;;;;3.70;1.52;;;;;;;7.46;84.84;100057.38;5030076;28;20477;-65
2021/09/06 04:22:48;;;;;;;2.88;1.55;;;;;;;7.43;84.49;100050.50;5029674;28;20116;-64
2021/09/06 04:25:15;;;;;;;4.97;1.88;;;;;;;7.30;83.59;100027.47;5027463;28;20482;-63
2021/09/06 04:27:41;;;;;;;3.97;1.60;;;;;;;7.48;83.19;100055.63;5046859;28;20045;-62
2021/09/06 04:30:12;;;;;;;3.20;1.55;;;;;;;7.51;82.80;100050.41;5031601;28;20057;-64
2021/09/06 04:32:39;;;;;;;8.55;2.65;;;;;;;7.59;82.85;100058.88;5029340;28;20456;-63
2021/09/06 04:35:05;;;;;;;2.85;1.40;;;;;;;7.62;82.57;100053.66;5029264;28;20037;-65
2021/09/06 04:37:32;;;;;;;5.05;1.50;;;;;;;7.65;82.23;100053.59;5063656;28;20050;-63
2021/09/06 04:40:02;;;;;;;11.05;1.50;;;;;;;7.72;81.90;100062.97;5029923;28;20081;-64
2021/09/06 04:42:31;;;;;;;22.13;12.40;;;;;;;7.84;81.63;100054.16;5028943;28;20048;-64
2021/09/06 04:44:59;;;;;;;3.78;2.05;;;;;;;7.90;81.74;100062.66;5028288;28;20045;-64
2021/09/06 04:47:26;;;;;;;3.78;1.65;;;;;;;7.97;81.40;100055.66;5029008;28;20041;-63
2021/09/06 04:49:53;;;;;;;2.83;1.50;;;;;;;7.98;80.46;100057.34;5030182;28;20567;-64
2021/09/06 04:52:21;;;;;;;2.70;1.80;;;;;;;8.01;80.11;100055.56;5029030;28;20155;-64
2021/09/06 04:54:48;;;;;;;3.38;1.48;;;;;;;8.00;79.90;100047.84;5028890;28;20093;-66
2021/09/06 04:57:14;;;;;;;3.22;1.98;;;;;;;8.18;79.60;100062.16;5028231;28;20041;-64
2021/09/06 04:59:41;;;;;;;4.93;1.88;;;;;;;8.24;78.92;100055.16;5013107;28;20052;-64
2021/09/06 05:02:07;;;;;;;5.80;2.08;;;;;;;8.38;79.28;100062.66;5028966;28;20056;-65
2021/09/06 05:04:34;;;;;;;2.78;1.67;;;;;;;8.48;78.98;100066.78;5062184;28;20127;-64
2021/09/06 05:07:00;;;;;;;3.45;1.50;;;;;;;8.53;78.35;100058.94;5027330;28;20041;-66
2021/09/06 05:09:26;;;;;;;5.32;2.85;;;;;;;8.65;78.08;100059.53;5028631;28;20056;-65
2021/09/06 05:11:52;;;;;;;6.70;2.92;;;;;;;8.75;77.57;100062.78;5027834;28;20556;-65
2021/09/06 05:14:19;;;;;;;7.32;3.30;;;;;;;8.77;76.71;100061.03;5061121;28;20087;-65
2021/09/06 05:16:44;;;;;;;2.58;1.55;;;;;;;8.76;75.88;100052.41;5012816;28;20041;-64
2021/09/06 05:19:11;;;;;;;3.22;1.50;;;;;;;8.72;75.14;100062.88;5028317;28;20564;-62
2021/09/06 05:21:37;;;;;;;2.17;1.23;;;;;;;8.76;74.11;100067.09;5026897;28;20128;-65
2021/09/06 05:24:06;;;;;;;3.13;1.58;;;;;;;8.77;73.56;100061.88;5028349;28;20107;-64
2021/09/06 05:26:31;;;;;;;2.45;1.35;;;;;;;8.89;73.80;100061.63;5058361;28;20045;-60
2021/09/06 05:28:58;;;;;;;3.53;1.50;;;;;;;9.02;72.91;100063.94;5029249;28;20041;-64
2021/09/06 05:31:24;;;;;;;3.38;1.85;;;;;;;9.15;73.26;100065.38;5027022;28;20060;-61
2021/09/06 05:33:50;;;;;;;2.63;1.38;;;;;;;9.14;71.58;100059.34;5012929;28;20068;-60
2021/09/06 05:36:16;;;;;;;3.97;1.25;;;;;;;9.25;71.48;100065.16;5028481;28;20137;-63
2021/09/06 05:54:49;;;;;;;2.80;1.40;;;;;;;10.54;66.58;100074.84;4925090;28;1757103;-63
2021/09/06 05:57:17;;;;;;;2.90;1.35;;;;;;;11.05;65.20;100076.81;5094570;28;20071;-62
2021/09/06 05:59:43;;;;;;;6.28;1.67;;;;;;;11.63;64.36;100078.47;5088900;28;20447;-64
2021/09/06 06:02:09;;;;;;;2.83;1.45;;;;;;;12.21;62.95;100085.22;5087674;28;20040;-59
2021/09/06 06:04:37;;;;;;;5.28;1.35;;;;;;;12.68;59.40;100088.75;5112672;27;20044;-58
2021/09/06 06:07:03;;;;;;;3.25;1.30;;;;;;;13.64;56.12;100087.72;5072166;28;20062;-68
2021/09/06 06:09:32;;;;;;;2.17;1.73;;;;;;;14.47;53.80;100085.09;5071482;28;20052;-67
2021/09/06 06:11:59;;;;;;;6.20;1.40;;;;;;;15.28;50.82;100096.22;5090899;28;20050;-66
2021/09/06 06:14:25;;;;;;;1.75;1.20;;;;;;;15.73;48.00;100087.09;5082760;28;20072;-64
2021/09/06 06:16:51;;;;;;;5.57;1.80;;;;;;;16.80;45.65;100081.53;5082101;28;20074;-68
2021/09/06 06:19:19;;;;;;;3.42;1.48;;;;;;;17.68;44.29;100091.63;5068449;28;20040;-63
2021/09/06 06:22:14;;;;;;;4.93;1.52;;;;;;;18.98;41.83;100086.41;5085222;28;20036;-63
2021/09/06 06:25:03;;;;;;;5.20;2.08;;;;;;;20.14;39.67;100090.28;5077501;28;20594;-63
2021/09/06 06:27:38;;;;;;;8.57;4.25;;;;;;;20.85;38.23;100092.44;5088386;28;20083;-63
2021/09/06 06:30:08;;;;;;;6.55;2.35;;;;;;;21.75;36.58;100093.88;5074748;28;20040;-67
2021/09/06 06:32:34;;;;;;;13.73;6.78;;;;;;;22.63;34.98;100088.00;5068264;28;20031;-58
2021/09/06 06:35:24;;;;;;;2.45;1.20;;;;;;;22.93;31.20;100092.75;5086520;28;20117;-60
2021/09/06 06:37:50;;;;;;;1.58;1.00;;;;;;;23.27;30.79;100084.78;5084195;28;20046;-61
2021/09/06 06:40:16;;;;;;;2.90;1.30;;;;;;;23.67;29.86;100088.53;5064901;28;20515;-60
2021/09/06 06:42:43;;;;;;;3.80;1.60;;;;;;;24.10;29.27;100072.53;5086098;28;20516;-62
2021/09/06 06:45:12;;;;;;;1.95;1.40;;;;;;;25.16;28.46;100079.31;5106386;28;20104;-62
2021/09/06 06:47:39;;;;;;;3.85;1.83;;;;;;;25.97;27.10;100085.31;5106276;28;20092;-61
2021/09/06 06:50:05;;;;;;;2.10;1.55;;;;;;;25.75;26.12;100082.94;5081377;28;20047;-61
2021/09/06 06:52:36;;;;;;;2.65;1.48;;;;;;;26.04;26.06;100083.75;5083851;28;20054;-62
2021/09/06 06:55:03;;;;;;;2.10;1.30;;;;;;;26.02;23.96;100081.22;5082920;28;20063;-61
2021/09/06 06:57:29;;;;;;;1.83;1.30;;;;;;;26.26;24.68;100088.00;5082563;28;20098;-61
2021/09/06 06:59:55;;;;;;;3.15;1.60;;;;;;;27.00;23.73;100078.25;5087263;28;20032;-64
2021/09/06 07:02:21;;;;;;;3.90;1.35;;;;;;;28.00;23.42;100086.97;5086639;28;20466;-56
2021/09/06 07:04:47;;;;;;;2.67;1.40;;;;;;;28.74;21.89;100091.06;5102306;28;20070;-55
2021/09/06 07:07:13;;;;;;;13.43;1.90;;;;;;;28.45;22.76;100088.69;5061643;28;20043;-56
2021/09/06 07:09:41;;;;;;;3.42;1.70;;;;;;;28.27;23.33;100086.06;5071783;28;20047;-53
2021/09/06 07:12:07;;;;;;;4.85;2.10;;;;;;;29.26;22.25;100087.28;5072313;28;20085;-57
2021/09/06 07:14:35;;;;;;;3.70;1.98;;;;;;;28.65;21.95;100085.66;5052588;28;20071;-56
2021/09/06 07:17:01;;;;;;;4.78;2.00;;;;;;;26.88;23.02;100082.94;5072880;28;20051;-50
2021/09/06 07:19:27;;;;;;;6.40;1.38;;;;;;;26.66;22.34;100088.59;5072586;28;20520;-52
2021/09/06 07:21:53;;;;;;;1.95;1.20;;;;;;;26.65;22.75;100078.06;5043600;28;20048;-50
2021/09/06 07:24:19;;;;;;;3.90;1.50;;;;;;;24.90;25.11;100075.44;5098623;28;20113;-54
2021/09/06 07:26:45;;;;;;;4.22;2.53;;;;;;;22.93;27.71;100078.66;5070095;28;20503;-58
2021/09/06 07:29:11;;;;;;;3.33;1.77;;;;;;;21.51;29.58;100080.66;5053158;28;20039;-59
2021/09/06 07:31:37;;;;;;;4.63;1.40;;;;;;;20.91;30.37;100075.28;5085093;28;20059;-58
2021/09/06 07:34:06;;;;;;;2.28;1.23;;;;;;;20.28;31.51;100076.13;5063081;28;20094;-51
2021/09/06 07:36:33;;;;;;;2.88;1.55;;;;;;;20.00;31.74;100084.22;5055604;28;20041;-56
2021/09/06 07:38:59;;;;;;;2.67;1.30;;;;;;;21.60;29.24;100079.13;5052411;28;20705;-68
2021/09/06 07:41:26;;;;;;;1.95;0.95;;;;;;;20.75;30.17;100077.31;5052016;28;20048;-61
2021/09/06 07:43:53;;;;;;;2.33;1.33;;;;;;;20.19;30.54;100082.91;5069494;28;20044;-57
2021/09/06 07:46:19;;;;;;;3.15;1.50;;;;;;;22.17;28.44;100076.63;5071932;28;20126;-59
2021/09/06 07:48:45;;;;;;;3.72;1.60;;;;;;;24.76;25.38;100089.03;5072440;28;20131;-59
2021/09/06 07:51:11;;;;;;;1.60;0.95;;;;;;;22.91;26.44;100089.41;5040079;28;20031;-49
2021/09/06 07:53:36;;;;;;;3.90;1.23;;;;;;;21.56;28.34;100082.00;5053835;28;20870;-54
2021/09/06 07:56:14;;;;;;;3.08;1.38;;;;;;;20.12;30.77;100081.59;5069574;28;20135;-52
2021/09/06 07:58:40;;;;;;;2.92;1.15;;;;;;;19.51;32.33;100078.69;5053423;28;20499;-53
2021/09/06 08:01:06;;;;;;;4.00;1.65;;;;;;;19.23;33.31;100087.47;5053286;28;20101;-50
2021/09/06 08:03:32;;;;;;;3.92;1.45;;;;;;;20.91;31.29;100086.72;5071086;28;20043;-48
2021/09/06 08:05:58;;;;;;;3.03;1.10;;;;;;;20.90;31.22;100081.53;5058562;28;20154;-50
2021/09/06 08:08:23;;;;;;;3.47;1.60;;;;;;;20.53;31.80;100086.75;5072861;28;20529;-51
2021/09/06 08:10:51;;;;;;;3.35;1.60;;;;;;;21.09;31.29;100082.75;5071961;28;20065;-52
2021/09/06 08:13:22;;;;;;;6.38;2.60;;;;;;;20.36;31.82;100092.31;5062769;28;20040;-55
2021/09/06 08:15:48;;;;;;;2.55;1.10;;;;;;;19.37;32.51;100090.94;5064071;28;20086;-61
2021/09/06 08:18:14;;;;;;;2.65;1.10;;;;;;;17.95;33.62;100089.19;5077991;28;20041;-62
2021/09/06 08:20:56;;;;;;;4.55;2.10;;;;;;;17.64;34.82;100084.81;5063370;28;20273;-61
2021/09/06 08:23:23;;;;;;;4.20;1.58;;;;;;;20.78;31.02;100090.34;5054409;28;20222;-61
2021/09/06 08:25:52;;;;;;;4.53;2.05;;;;;;;22.81;27.78;100088.44;5072460;28;20088;-61
2021/09/06 08:28:18;;;;;;;2.97;1.20;;;;;;;22.71;27.33;100090.97;5073676;28;20061;-61
2021/09/06 08:30:44;;;;;;;4.15;2.10;;;;;;;22.91;27.65;100081.44;5093060;28;20511;-61
2021/09/06 08:33:10;;;;;;;3.25;1.63;;;;;;;23.01;27.71;100085.06;5083367;28;20036;-62
2021/09/06 08:35:36;;;;;;;2.65;1.67;;;;;;;24.27;25.95;100087.94;5072196;28;20032;-62
2021/09/06 08:38:03;;;;;;;2.50;1.73;;;;;;;25.72;23.80;100086.72;5068628;28;20123;-62
2021/09/06 08:40:29;;;;;;;3.00;1.80;;;;;;;26.97;22.30;100086.53;5052331;28;20052;-61
2021/09/06 08:42:55;;;;;;;4.45;2.75;;;;;;;28.31;21.27;100091.94;5068360;28;20419;-62
2021/09/06 08:45:21;;;;;;;2.72;1.60;;;;;;;29.10;20.68;100095.25;5052738;28;20048;-62
2021/09/06 08:47:48;;;;;;;2.72;1.70;;;;;;;28.85;19.52;100085.44;5052365;28;20048;-62
2021/09/06 08:50:17;;;;;;;2.85;1.40;;;;;;;28.41;20.28;100082.00;5063188;28;20044;-62
2021/09/06 08:52:44;;;;;;;2.38;1.30;;;;;;;25.56;22.60;100081.09;5072043;28;20085;-62
2021/09/06 08:55:10;;;;;;;8.77;5.80;;;;;;;23.50;24.99;100089.91;5072311;28;20051;-62
2021/09/06 08:57:36;;;;;;;5.35;2.22;;;;;;;22.62;26.37;100080.19;5072859;28;20050;-62
2021/09/06 09:00:04;;;;;;;4.72;1.80;;;;;;;22.38;26.92;100070.53;5052115;28;20036;-62
2021/09/06 09:02:42;;;;;;;6.97;2.38;;;;;;;24.59;25.00;100089.69;5052610;28;20053;-63
2021/09/06 09:05:37;;;;;;;2.60;1.65;;;;;;;26.32;23.29;100079.41;5053305;28;20052;-63
2021/09/06 09:08:26;;;;;;;10.30;3.88;;;;;;;24.90;24.34;100086.09;5072685;28;20503;-64
2021/09/06 09:11:04;;;;;;;6.07;2.13;;;;;;;23.19;26.59;100085.38;5072162;28;20147;-63
2021/09/06 09:13:56;;;;;;;3.90;1.92;;;;;;;21.63;28.01;100079.75;5066699;28;20055;-63
2021/09/06 09:17:00;;;;;;;1.80;1.20;;;;;;;21.51;27.59;100073.53;5052148;28;20396;-63
2021/09/06 09:19:40;;;;;;;3.70;2.40;;;;;;;24.34;24.89;100089.09;5068925;28;20040;-63
2021/09/06 09:22:33;;;;;;;9.77;3.58;;;;;;;26.89;22.58;100079.28;5069592;28;20623;-60
2021/09/06 09:25:17;;;;;;;7.60;2.65;;;;;;;28.31;21.23;100074.06;5069775;28;20518;-64
2021/09/06 09:28:02;;;;;;;2.47;1.17;;;;;;;29.36;19.30;100084.53;5084695;28;20073;-62
2021/09/06 09:30:39;;;;;;;1.45;1.15;;;;;;;25.67;21.27;100084.47;5071654;28;20044;-60
2021/09/06 09:33:20;;;;;;;1.67;1.17;;;;;;;23.04;24.52;100079.47;5070233;28;20044;-63
2021/09/06 09:36:34;;;;;;;3.45;1.10;;;;;;;21.24;26.86;100075.56;5071755;28;20051;-62
2021/09/06 09:39:09;;;;;;;5.53;3.22;;;;;;;20.52;28.66;100078.91;5089635;28;20043;-63
2021/09/06 09:41:36;;;;;;;3.05;1.80;;;;;;;21.35;28.09;100083.59;5089659;28;20529;-62
2021/09/06 09:44:25;;;;;;;4.80;2.10;;;;;;;24.74;24.76;100088.34;5089899;28;20113;-62
2021/09/06 09:47:09;;;;;;;3.05;1.35;;;;;;;26.01;23.72;100079.53;5077006;28;20040;-63
2021/09/06 09:49:37;;;;;;;2.78;1.33;;;;;;;25.46;23.43;100081.03;5069535;28;20043;-62
2021/09/06 09:52:08;;;;;;;4.68;1.10;;;;;;;24.06;24.14;100073.78;5052238;28;20044;-62
2021/09/06 09:54:36;;;;;;;5.43;2.28;;;;;;;22.34;26.05;100069.09;5060398;28;20374;-63
2021/09/06 09:57:04;;;;;;;4.88;1.95;;;;;;;21.50;27.81;100069.25;5078373;28;20040;-63
2021/09/06 09:59:32;;;;;;;4.22;2.17;;;;;;;20.77;29.34;100075.44;5068455;28;20047;-63
2021/09/06 10:02:23;;;;;;;8.10;3.10;;;;;;;20.04;30.43;100075.16;5051412;28;20146;-59
2021/09/06 10:04:54;;;;;;;2.30;1.10;;;;;;;19.28;30.57;100062.53;5068230;28;20047;-61
2021/09/06 10:07:24;;;;;;;2.97;1.27;;;;;;;18.95;31.03;100075.19;5085069;28;20388;-59
2021/09/06 10:09:52;;;;;;;10.25;2.50;;;;;;;18.96;31.48;100075.09;5093416;28;20458;-61
2021/09/06 10:12:21;;;;;;;2.17;1.30;;;;;;;21.40;28.62;100062.94;5054896;28;20422;-62
2021/09/06 10:14:52;;;;;;;2.72;1.40;;;;;;;23.90;25.42;100063.59;5054961;28;20040;-62
2021/09/06 10:17:48;;;;;;;3.58;1.55;;;;;;;25.94;22.61;100072.28;5089075;28;20036;-62
2021/09/06 10:20:16;;;;;;;2.22;1.10;;;;;;;25.19;22.64;100055.06;5075572;28;20115;-62
2021/09/06 10:22:44;;;;;;;1.85;1.30;;;;;;;24.91;23.47;100055.84;5069154;28;20071;-61
2021/09/06 10:25:19;;;;;;;4.28;2.38;;;;;;;23.96;24.85;100060.44;5084527;28;20044;-62
2021/09/06 10:27:54;;;;;;;4.82;1.77;;;;;;;23.55;25.77;100047.91;5084904;28;20044;-62
2021/09/06 10:30:33;;;;;;;9.32;1.50;;;;;;;22.79;27.14;100053.22;5105087;28;20464;-62
2021/09/06 10:32:59;;;;;;;4.90;1.98;;;;;;;21.68;27.70;100052.94;5072409;28;20036;-63
2021/09/06 10:35:29;;;;;;;3.53;2.10;;;;;;;22.76;26.81;100067.59;5051399;28;20036;-61
2021/09/06 10:38:02;;;;;;;5.78;2.20;;;;;;;24.79;24.67;100064.84;5072657;28;20067;-62
2021/09/06 10:40:37;;;;;;;3.58;2.45;;;;;;;26.66;22.70;100056.56;5072853;28;20036;-61
2021/09/06 10:43:30;;;;;;;3.25;1.95;;;;;;;28.03;21.07;100046.59;5072665;28;20048;-64
2021/09/06 10:45:59;;;;;;;2.33;1.70;;;;;;;28.93;20.58;100053.38;5068308;28;20056;-63
2021/09/06 10:48:25;;;;;;;2.88;2.00;;;;;;;29.76;19.84;100049.75;5092671;28;20077;-61
2021/09/06 10:50:52;;;;;;;3.00;1.92;;;;;;;30.48;19.52;100045.38;5092657;28;20044;-62
2021/09/06 10:53:23;;;;;;;1.88;1.40;;;;;;;30.84;18.62;100051.13;5074466;28;20088;-63
2021/09/06 10:55:51;;;;;;;5.28;2.38;;;;;;;29.28;20.02;100037.06;5072973;28;20522;-63
2021/09/06 10:58:17;;;;;;;2.38;1.27;;;;;;;27.20;20.29;100050.44;5054670;28;20056;-62
2021/09/06 11:00:55;;;;;;;2.22;1.35;;;;;;;25.42;21.77;100047.69;5072409;28;20041;-62
2021/09/06 11:03:23;;;;;;;2.50;1.40;;;;;;;26.10;21.00;100040.56;5072225;28;20032;-64
2021/09/06 11:05:52;;;;;;;1.65;1.27;;;;;;;26.90;20.28;100042.75;5072466;28;20447;-61
2021/09/06 11:08:22;;;;;;;;;;;;;;;27.48;20.05;100047.75;5072137;28;20037;-61
2021/09/06 11:10:49;;;;;;;2.88;1.92;;;;;;;28.31;19.64;100041.13;5072329;28;19920;-61
2021/09/06 11:13:15;;;;;;;3.05;1.73;;;;;;;29.07;18.57;100039.34;5087812;28;20118;-62
2021/09/06 11:15:41;;;;;;;3.40;1.38;;;;;;;28.04;17.84;100021.53;5071550;28;20094;-62
2021/09/06 11:18:08;;;;;;;3.80;2.35;;;;;;;27.47;17.99;100041.56;5072165;28;20544;-61
2021/09/06 11:20:37;;;;;;;1.48;1.23;;;;;;;27.28;18.51;100036.31;5071693;28;20036;-62
2021/09/06 11:23:06;;;;;;;2.78;1.50;;;;;;;26.75;19.22;100036.16;5071874;28;20494;-61
2021/09/06 11:25:36;;;;;;;3.67;1.48;;;;;;;26.11;19.93;100034.25;5071942;28;20044;-61
2021/09/06 11:28:13;;;;;;;3.00;1.40;;;;;;;26.10;19.93;100029.91;5054076;28;20074;-63
2021/09/06 11:30:43;;;;;;;2.40;2.00;;;;;;;26.89;19.51;100027.72;5071494;28;20053;-63
2021/09/06 11:33:10;;;;;;;1.63;1.13;;;;;;;26.86;19.35;100023.47;5063162;28;20538;-62
2021/09/06 11:35:37;;;;;;;3.20;1.40;;;;;;;27.15;19.56;100030.53;5071141;28;20068;-62
2021/09/06 11:38:04;;;;;;;2.60;1.30;;;;;;;26.77;19.62;100021.72;5071398;28;20032;-62
2021/09/06 11:40:30;;;;;;;2.33;1.33;;;;;;;25.98;20.94;100023.03;5053288;28;20656;-61
2021/09/06 11:42:58;;;;;;;2.03;1.05;;;;;;;24.19;22.18;100020.47;5071128;28;20521;-63
2021/09/06 11:45:24;;;;;;;2.47;1.20;;;;;;;23.43;23.38;100013.56;5053274;28;20468;-63
2021/09/06 11:47:50;;;;;;;2.67;1.40;;;;;;;23.00;23.69;100022.34;5071647;28;20071;-62
2021/09/06 11:50:21;;;;;;;1.48;1.05;;;;;;;22.60;23.79;100016.72;5071538;28;20521;-62
2021/09/06 11:52:47;;;;;;;2.13;1.05;;;;;;;21.76;24.31;100002.94;5071517;28;20044;-62
2021/09/06 11:55:22;;;;;;;1.20;1.00;;;;;;;21.64;24.74;100006.50;5050976;28;20063;-63
2021/09/06 11:57:47;;;;;;;1.80;0.93;;;;;;;21.27;25.04;100001.28;5091445;28;20059;-61